Time;durP1;ratioP1;P1;durP2;ratioP2;P2;SDS_P1;SDS_P2;PMS_P1;PMS_P2;Temp;Humidity;BMP_temperature;BMP_pressure;BME280_temperature;BME280_humidity;BME280_pressure;Samples;Min_cycle;Max_cycle;Signal;HPM_P1;HPM_P2
2020/12/16 00:02:04;;;;;;;35.05;16.35;;;7.60;99.90;;;;;;4986884;28;20037;-77
2020/12/16 00:04:30;;;;;;;45.35;15.82;;;7.60;99.90;;;;;;4996045;28;20053;-77
2020/12/16 00:06:56;;;;;;;42.75;15.63;;;7.60;99.90;;;;;;4996719;28;20380;-77
2020/12/16 00:09:21;;;;;;;38.88;16.67;;;7.60;99.90;;;;;;4995543;28;20022;-77
2020/12/16 00:11:47;;;;;;;41.33;16.27;;;7.60;99.90;;;;;;4982418;28;20174;-77
2020/12/16 00:14:12;;;;;;;35.17;16.38;;;7.50;99.90;;;;;;4989957;28;20038;-77
2020/12/16 00:16:38;;;;;;;33.15;16.05;;;7.50;99.90;;;;;;4981574;28;20034;-77
2020/12/16 00:19:04;;;;;;;33.88;16.55;;;7.50;99.90;;;;;;4999067;28;20026;-77
2020/12/16 00:21:29;;;;;;;33.45;15.63;;;7.60;99.90;;;;;;4995421;28;20027;-78
2020/12/16 00:23:55;;;;;;;38.35;16.42;;;7.60;99.90;;;;;;4997189;28;20030;-78
2020/12/16 00:26:20;;;;;;;36.00;16.00;;;7.60;99.90;;;;;;4995909;28;20326;-77
2020/12/16 00:28:46;;;;;;;34.33;15.52;;;7.50;99.90;;;;;;4996010;28;20023;-78
2020/12/16 00:31:14;;;;;;;26.80;14.52;;;7.60;99.90;;;;;;4997878;28;20032;-78
2020/12/16 00:33:40;;;;;;;;;;;7.60;99.90;;;;;;4992526;28;20018;-77
2020/12/16 00:36:06;;;;;;;28.40;13.40;;;7.60;99.90;;;;;;4995869;28;19914;-77
2020/12/16 00:38:31;;;;;;;26.33;12.90;;;7.60;99.90;;;;;;4992810;28;20034;-77
2020/12/16 00:40:57;;;;;;;38.30;13.45;;;7.70;99.90;;;;;;4993354;28;20030;-77
2020/12/16 00:43:23;;;;;;;35.08;13.20;;;7.60;99.90;;;;;;4996207;28;20020;-77
2020/12/16 00:45:48;;;;;;;40.35;12.73;;;7.60;99.90;;;;;;4993874;28;20044;-77
2020/12/16 00:48:14;;;;;;;41.00;13.60;;;7.40;99.90;;;;;;4989580;28;20049;-76
2020/12/16 00:50:39;;;;;;;49.28;13.57;;;7.40;99.90;;;;;;4991191;28;20029;-76
2020/12/16 00:53:05;;;;;;;53.85;13.15;;;7.30;99.90;;;;;;4991387;28;20038;-76
2020/12/16 00:55:31;;;;;;;33.45;12.70;;;7.20;99.90;;;;;;4992311;28;20041;-77
2020/12/16 00:57:58;;;;;;;34.85;13.43;;;7.20;99.90;;;;;;4994731;28;20065;-77
2020/12/16 01:00:23;;;;;;;57.80;13.73;;;7.20;99.90;;;;;;4992442;28;20027;-76
2020/12/16 01:02:49;;;;;;;39.75;13.75;;;7.10;99.90;;;;;;4991412;28;20129;-76
2020/12/16 01:05:18;;;;;;;35.40;13.25;;;7.10;99.90;;;;;;4996869;28;20033;-75
2020/12/16 01:07:43;;;;;;;23.60;13.13;;;7.10;99.90;;;;;;5004488;28;20031;-77
2020/12/16 01:10:11;;;;;;;57.72;16.02;;;7.10;99.90;;;;;;5008255;28;20022;-77
2020/12/16 01:12:41;;;;;;;40.92;14.98;;;7.20;99.90;;;;;;5011856;28;20039;-76
2020/12/16 01:15:15;;;;;;;43.97;14.52;;;7.10;99.90;;;;;;5005523;28;20030;-78
2020/12/16 01:17:42;;;;;;;36.85;14.75;;;7.20;99.90;;;;;;5016966;28;20030;-77
2020/12/16 01:20:09;;;;;;;31.95;14.70;;;7.20;99.90;;;;;;5016503;28;20021;-77
2020/12/16 01:22:43;;;;;;;36.45;16.50;;;7.20;99.90;;;;;;5018066;28;20046;-77
2020/12/16 01:25:10;;;;;;;51.25;16.15;;;7.20;99.90;;;;;;5013788;28;20035;-76
2020/12/16 01:27:37;;;;;;;44.65;15.43;;;7.30;99.90;;;;;;5007423;28;20113;-78
2020/12/16 01:30:09;;;;;;;64.68;17.15;;;7.30;99.90;;;;;;5006222;28;20053;-77
2020/12/16 01:32:36;;;;;;;36.13;16.17;;;7.30;99.90;;;;;;5002441;28;20023;-76
2020/12/16 01:35:05;;;;;;;32.05;15.95;;;7.30;99.90;;;;;;4997142;28;20030;-77
2020/12/16 01:37:30;;;;;;;32.08;15.40;;;7.30;99.90;;;;;;4999192;28;20029;-76
2020/12/16 01:39:56;;;;;;;30.27;14.05;;;7.40;99.90;;;;;;4997433;28;20030;-77
2020/12/16 01:42:21;;;;;;;27.38;13.50;;;7.40;99.90;;;;;;4998013;28;20026;-77
2020/12/16 01:44:47;;;;;;;30.27;13.90;;;7.40;99.90;;;;;;4996344;28;20030;-77
2020/12/16 01:47:13;;;;;;;34.22;15.05;;;7.50;99.90;;;;;;4993721;28;20039;-76
2020/12/16 01:49:38;;;;;;;30.05;13.13;;;7.50;99.90;;;;;;4991104;28;20014;-77
2020/12/16 01:52:06;;;;;;;32.28;12.38;;;7.40;99.90;;;;;;4997178;28;20033;-76
2020/12/16 01:54:36;;;;;;;21.38;12.38;;;7.40;99.90;;;;;;4996533;28;20061;-77
2020/12/16 01:57:04;;;;;;;36.85;12.77;;;7.40;99.90;;;;;;4994880;28;20498;-77
2020/12/16 01:59:37;;;;;;;30.58;12.02;;;7.30;99.90;;;;;;4997275;28;20174;-76
2020/12/16 02:02:05;;;;;;;23.20;11.45;;;7.30;99.90;;;;;;4993251;28;20030;-77
2020/12/16 02:04:40;;;;;;;28.38;11.85;;;7.30;99.90;;;;;;4994129;28;20022;-76
2020/12/16 02:07:08;;;;;;;18.30;10.38;;;7.20;99.90;;;;;;4996248;28;20153;-77
2020/12/16 02:09:47;;;;;;;20.85;12.45;;;7.20;99.90;;;;;;4991888;28;20027;-76
2020/12/16 02:12:18;;;;;;;34.95;12.82;;;7.10;99.90;;;;;;4993091;28;20054;-76
2020/12/16 02:14:43;;;;;;;26.23;12.00;;;7.00;99.90;;;;;;4993823;28;20143;-76
2020/12/16 02:17:10;;;;;;;35.20;12.23;;;7.10;99.90;;;;;;4993834;28;20078;-77
2020/12/16 02:19:39;;;;;;;22.85;11.75;;;7.00;99.90;;;;;;4994243;28;20446;-77
2020/12/16 02:22:05;;;;;;;22.30;11.63;;;7.00;99.90;;;;;;4996874;28;20057;-77
2020/12/16 02:24:32;;;;;;;34.30;11.80;;;7.00;99.90;;;;;;4995950;28;20130;-77
2020/12/16 02:26:58;;;;;;;32.60;11.65;;;6.90;99.90;;;;;;4993572;28;20042;-77
2020/12/16 02:29:24;;;;;;;23.45;11.93;;;6.80;99.90;;;;;;4996548;28;20415;-77
2020/12/16 02:31:53;;;;;;;35.80;11.93;;;6.60;99.90;;;;;;4997395;28;20026;-77
2020/12/16 02:34:19;;;;;;;57.67;14.57;;;6.60;99.90;;;;;;4995214;28;20053;-76
2020/12/16 02:36:45;;;;;;;37.60;13.23;;;6.60;99.90;;;;;;4992827;28;20042;-76
2020/12/16 02:39:10;;;;;;;31.77;11.90;;;6.50;99.90;;;;;;4997101;28;20582;-77
2020/12/16 02:41:36;;;;;;;23.17;12.60;;;6.50;99.90;;;;;;4994271;28;20112;-76
2020/12/16 02:44:01;;;;;;;59.00;14.05;;;6.40;99.90;;;;;;4993569;28;20040;-77
2020/12/16 02:46:27;;;;;;;23.67;13.02;;;6.40;99.90;;;;;;4996121;28;20026;-76
2020/12/16 02:48:52;;;;;;;28.23;15.00;;;6.40;99.90;;;;;;4995564;28;20042;-76
2020/12/16 02:51:18;;;;;;;24.42;14.13;;;6.40;99.90;;;;;;4997621;28;20027;-77
2020/12/16 02:53:44;;;;;;;36.25;16.05;;;6.50;99.90;;;;;;4994764;28;20049;-77
2020/12/16 02:56:09;;;;;;;28.10;14.13;;;6.50;99.90;;;;;;4993379;28;20367;-76
2020/12/16 02:58:42;;;;;;;36.58;13.30;;;6.60;99.90;;;;;;4997673;28;20386;-76
2020/12/16 03:01:08;;;;;;;25.08;13.73;;;6.60;99.90;;;;;;4995546;28;20096;-77
2020/12/16 03:03:33;;;;;;;25.65;14.15;;;6.60;99.90;;;;;;4994352;28;20038;-76
2020/12/16 03:05:59;;;;;;;35.17;12.90;;;6.60;99.90;;;;;;4994641;28;20088;-76
2020/12/16 03:08:24;;;;;;;25.33;14.02;;;6.60;99.90;;;;;;4997248;28;20026;-76
2020/12/16 03:10:50;;;;;;;31.75;14.13;;;6.60;99.90;;;;;;5011556;28;20039;-77
2020/12/16 03:13:15;;;;;;;30.80;13.43;;;6.60;99.90;;;;;;5009887;28;20423;-77
2020/12/16 03:15:41;;;;;;;28.45;14.00;;;6.60;99.90;;;;;;5011103;28;20030;-77
2020/12/16 03:18:07;;;;;;;24.55;13.52;;;6.60;99.90;;;;;;5015202;28;20050;-77
2020/12/16 03:20:32;;;;;;;44.20;14.38;;;6.60;99.90;;;;;;5016575;28;20057;-77
2020/12/16 03:22:58;;;;;;;32.45;14.25;;;6.60;99.90;;;;;;5013763;28;20034;-76
2020/12/16 03:25:23;;;;;;;33.95;15.40;;;6.60;99.90;;;;;;5015388;28;20006;-76
2020/12/16 03:27:49;;;;;;;25.05;14.65;;;6.60;99.90;;;;;;5007503;28;20026;-76
2020/12/16 03:30:14;;;;;;;53.95;14.60;;;6.60;99.90;;;;;;5002168;28;20038;-77
2020/12/16 03:32:40;;;;;;;35.45;15.40;;;6.60;99.90;;;;;;4999986;28;20105;-77
2020/12/16 03:35:06;;;;;;;28.13;13.68;;;6.70;99.90;;;;;;4995456;28;20023;-76
2020/12/16 03:37:31;;;;;;;25.52;14.95;;;6.60;99.90;;;;;;4995753;28;20037;-77
2020/12/16 03:39:57;;;;;;;25.98;13.73;;;6.50;99.90;;;;;;4993817;28;20038;-77
2020/12/16 03:42:22;;;;;;;33.10;15.80;;;6.60;99.90;;;;;;4991110;28;20375;-76
2020/12/16 03:44:48;;;;;;;34.78;16.02;;;6.50;99.90;;;;;;4989086;28;20104;-76
2020/12/16 03:47:15;;;;;;;42.85;17.10;;;6.50;99.90;;;;;;4994471;28;20030;-77
2020/12/16 03:49:40;;;;;;;44.38;16.92;;;6.50;99.90;;;;;;4986671;28;20026;-77
2020/12/16 03:52:06;;;;;;;36.67;15.68;;;6.50;99.90;;;;;;4995286;28;20487;-76
2020/12/16 03:54:32;;;;;;;44.85;17.30;;;6.50;99.90;;;;;;4990371;28;22342;-77
2020/12/16 03:56:57;;;;;;;41.35;16.27;;;6.50;99.90;;;;;;4994028;28;20022;-77
2020/12/16 03:59:23;;;;;;;31.63;15.55;;;6.60;99.90;;;;;;4994733;28;20077;-76
2020/12/16 04:01:51;;;;;;;38.63;16.58;;;6.60;99.90;;;;;;4994233;28;20387;-77
2020/12/16 04:04:17;;;;;;;38.75;15.68;;;6.60;99.90;;;;;;4993432;28;20030;-77
2020/12/16 04:06:42;;;;;;;48.20;16.30;;;6.70;99.90;;;;;;4992879;28;20364;-76
2020/12/16 04:09:08;;;;;;;32.20;17.33;;;6.70;99.90;;;;;;4994407;28;20030;-77
2020/12/16 04:11:34;;;;;;;30.65;15.60;;;6.70;99.90;;;;;;4993794;28;20050;-77
2020/12/16 04:13:59;;;;;;;38.70;15.05;;;6.70;99.90;;;;;;4996247;28;20031;-76
2020/12/16 04:16:25;;;;;;;51.63;16.17;;;6.80;99.90;;;;;;4995549;28;20042;-77
2020/12/16 04:18:51;;;;;;;43.97;15.48;;;6.70;99.90;;;;;;4991266;28;20034;-76
2020/12/16 04:21:19;;;;;;;30.20;16.45;;;6.70;99.90;;;;;;4997134;28;20030;-76
2020/12/16 04:23:44;;;;;;;30.73;15.52;;;6.70;99.90;;;;;;4993426;28;20022;-76
2020/12/16 04:26:10;;;;;;;39.58;15.57;;;6.70;99.90;;;;;;4995545;28;20041;-76
2020/12/16 04:28:36;;;;;;;40.70;15.90;;;6.70;99.90;;;;;;4994990;28;20026;-76
2020/12/16 04:31:10;;;;;;;42.78;16.17;;;6.80;99.90;;;;;;4994337;28;20026;-75
2020/12/16 04:33:35;;;;;;;39.35;15.32;;;6.70;99.90;;;;;;4993954;28;20054;-75
2020/12/16 04:36:01;;;;;;;39.60;15.43;;;6.70;99.90;;;;;;4993103;28;20069;-75
2020/12/16 04:38:27;;;;;;;50.35;16.38;;;6.70;99.90;;;;;;4991840;28;20026;-76
2020/12/16 04:40:54;;;;;;;44.60;16.02;;;6.60;99.90;;;;;;4995057;28;20026;-76
2020/12/16 04:43:21;;;;;;;38.73;15.20;;;6.70;99.90;;;;;;4981520;28;20018;-76
2020/12/16 04:45:49;;;;;;;55.35;16.15;;;6.70;99.90;;;;;;4990192;28;20018;-76
2020/12/16 04:48:15;;;;;;;52.55;16.70;;;6.70;99.90;;;;;;4990404;28;20409;-75
2020/12/16 04:50:43;;;;;;;31.95;15.38;;;6.70;99.90;;;;;;4995210;28;20027;-76
2020/12/16 04:53:11;;;;;;;39.38;16.40;;;6.70;99.90;;;;;;4991215;28;20106;-77
2020/12/16 04:55:37;;;;;;;35.53;16.65;;;6.70;99.90;;;;;;4994671;28;20095;-76
2020/12/16 04:58:04;;;;;;;38.67;16.60;;;6.70;99.90;;;;;;4993847;28;20054;-76
2020/12/16 05:00:32;;;;;;;38.80;17.83;;;6.70;99.90;;;;;;4994071;28;20034;-76
2020/12/16 05:03:02;;;;;;;91.82;17.20;;;6.70;99.90;;;;;;4991291;28;20030;-76
2020/12/16 05:05:29;;;;;;;78.93;16.50;;;6.70;99.90;;;;;;4999919;28;20041;-76
2020/12/16 05:07:55;;;;;;;30.75;14.68;;;6.70;99.90;;;;;;5008717;28;20089;-76
2020/12/16 05:10:35;;;;;;;31.60;14.70;;;6.70;99.90;;;;;;5009422;28;20037;-77
2020/12/16 05:13:11;;;;;;;43.55;15.63;;;6.70;99.90;;;;;;5011615;28;20026;-77
2020/12/16 05:15:38;;;;;;;45.50;14.75;;;6.70;99.90;;;;;;5005534;28;20032;-76
2020/12/16 05:18:12;;;;;;;33.70;14.83;;;6.70;99.90;;;;;;4997877;28;20117;-76
2020/12/16 05:20:41;;;;;;;54.30;14.48;;;6.70;99.90;;;;;;4991833;28;20491;-75
2020/12/16 05:23:07;;;;;;;36.58;14.27;;;6.70;99.90;;;;;;4992240;28;20042;-76
2020/12/16 05:25:34;;;;;;;24.40;13.70;;;6.70;99.90;;;;;;4985007;28;20105;-77
2020/12/16 05:28:00;;;;;;;27.92;15.13;;;6.80;99.90;;;;;;4989041;28;20378;-77
2020/12/16 05:30:26;;;;;;;25.30;13.32;;;6.80;99.90;;;;;;4989040;28;20102;-76
2020/12/16 05:32:53;;;;;;;29.27;14.02;;;6.70;99.90;;;;;;4993664;28;20097;-76
2020/12/16 05:35:34;;;;;;;27.90;14.88;;;6.80;99.90;;;;;;4990247;28;20026;-76
2020/12/16 05:38:05;;;;;;;24.83;14.18;;;6.80;99.90;;;;;;4988256;28;20390;-75
2020/12/16 05:40:32;;;;;;;49.03;14.95;;;6.80;99.90;;;;;;4990031;28;20031;-77
2020/12/16 05:42:58;;;;;;;43.30;14.45;;;6.80;99.90;;;;;;4990848;28;20035;-76
2020/12/16 05:45:28;;;;;;;27.65;13.32;;;6.80;99.90;;;;;;4993072;28;20038;-76
2020/12/16 05:48:08;;;;;;;30.23;13.10;;;6.80;99.90;;;;;;4990911;28;20045;-76
2020/12/16 05:50:37;;;;;;;23.92;12.35;;;6.80;99.90;;;;;;4990903;28;20076;-76
2020/12/16 05:53:20;;;;;;;30.27;12.73;;;6.80;99.90;;;;;;4990440;28;20026;-76
2020/12/16 05:55:51;;;;;;;24.08;12.18;;;6.80;99.90;;;;;;4989954;28;20037;-76
2020/12/16 05:58:18;;;;;;;22.42;11.55;;;6.80;99.90;;;;;;4990019;28;20024;-76
2020/12/16 06:01:00;;;;;;;26.20;13.00;;;6.80;99.90;;;;;;4990779;28;20061;-76
2020/12/16 06:03:30;;;;;;;22.75;12.40;;;6.70;99.90;;;;;;4995929;28;20113;-76
2020/12/16 06:06:09;;;;;;;32.03;13.23;;;6.80;99.90;;;;;;4997976;28;20073;-76
2020/12/16 06:08:36;;;;;;;21.38;12.23;;;6.70;99.90;;;;;;4995231;28;20133;-77
2020/12/16 06:11:03;;;;;;;21.88;12.18;;;6.70;99.90;;;;;;4997724;28;20066;-76
2020/12/16 06:13:30;;;;;;;22.80;12.43;;;6.80;99.90;;;;;;4997271;28;20070;-76
2020/12/16 06:16:06;;;;;;;26.15;13.68;;;6.80;99.90;;;;;;4996259;28;20093;-76
2020/12/16 06:18:40;;;;;;;25.42;13.77;;;6.80;99.90;;;;;;4995542;28;20030;-77
2020/12/16 06:21:07;;;;;;;27.27;12.70;;;6.90;99.90;;;;;;5001124;28;20022;-76
2020/12/16 06:23:38;;;;;;;23.33;11.80;;;6.90;99.90;;;;;;4996360;28;20030;-77
2020/12/16 06:26:15;;;;;;;24.33;13.07;;;6.90;99.90;;;;;;4995139;28;20426;-76
2020/12/16 06:28:45;;;;;;;23.25;13.02;;;6.90;99.90;;;;;;4996218;28;20126;-76
2020/12/16 06:31:25;;;;;;;21.45;11.73;;;6.80;99.90;;;;;;4997226;28;20027;-76
2020/12/16 06:34:12;;;;;;;21.02;12.68;;;6.90;99.90;;;;;;4990471;28;20022;-76
2020/12/16 06:36:40;;;;;;;23.27;11.73;;;6.80;99.90;;;;;;4994587;28;20030;-76
2020/12/16 06:39:16;;;;;;;;;;;6.70;99.90;;;;;;4999070;28;20034;-77
2020/12/16 06:41:51;;;;;;;35.95;12.52;;;6.70;99.90;;;;;;4998667;28;20027;-78
2020/12/16 06:44:17;;;;;;;23.23;10.98;;;6.60;99.90;;;;;;5000220;28;20018;-77
2020/12/16 06:46:44;;;;;;;23.67;11.98;;;6.60;99.90;;;;;;4998102;28;20027;-77
2020/12/16 06:49:22;;;;;;;26.17;12.13;;;6.60;99.90;;;;;;4997629;28;20030;-77
2020/12/16 06:51:50;;;;;;;21.83;11.73;;;6.70;99.90;;;;;;4998844;28;20038;-77
2020/12/16 06:54:22;;;;;;;20.13;11.60;;;6.50;99.90;;;;;;4996335;28;20027;-76
2020/12/16 06:56:50;;;;;;;20.30;11.85;;;6.50;99.90;;;;;;4999458;28;20093;-76
2020/12/16 06:59:41;;;;;;;23.98;11.65;;;6.50;99.90;;;;;;4995763;28;20113;-76
2020/12/16 07:02:22;;;;;;;26.80;12.40;;;6.50;99.90;;;;;;4998894;28;20038;-77
2020/12/16 07:04:48;;;;;;;27.52;11.95;;;6.50;99.90;;;;;;5007538;28;20014;-75
2020/12/16 07:07:38;;;;;;;17.88;11.27;;;6.50;99.90;;;;;;5016772;28;20055;-77
2020/12/16 07:10:04;;;;;;;26.55;12.32;;;6.50;99.90;;;;;;5011939;28;20035;-77
2020/12/16 07:12:29;;;;;;;28.10;13.13;;;6.40;99.90;;;;;;5017051;28;20033;-77
2020/12/16 07:14:55;;;;;;;29.10;12.98;;;6.40;99.90;;;;;;5008464;28;20043;-77
2020/12/16 07:17:21;;;;;;;34.05;12.30;;;6.40;99.90;;;;;;5011106;28;20018;-74
2020/12/16 07:19:47;;;;;;;22.83;12.73;;;6.40;99.90;;;;;;4988431;28;20031;-76
2020/12/16 07:22:24;;;;;;;27.63;12.35;;;6.50;99.90;;;;;;4999143;28;20035;-77
2020/12/16 07:24:51;;;;;;;36.67;12.30;;;6.50;99.90;;;;;;4996839;28;20058;-76
2020/12/16 07:27:19;;;;;;;36.15;13.80;;;6.50;99.90;;;;;;4998002;28;20081;-76
2020/12/16 07:29:55;;;;;;;31.42;14.02;;;6.40;99.90;;;;;;4996009;28;20027;-76
2020/12/16 07:32:22;;;;;;;42.70;12.43;;;6.40;99.90;;;;;;4991350;28;20031;-77
2020/12/16 07:34:49;;;;;;;29.63;11.88;;;6.40;99.90;;;;;;4993982;28;20050;-77
2020/12/16 07:37:19;;;;;;;26.08;12.35;;;6.40;99.90;;;;;;4995473;28;20109;-77
2020/12/16 07:39:49;;;;;;;27.20;12.75;;;6.40;99.90;;;;;;4994945;28;20030;-77
2020/12/16 07:42:24;;;;;;;33.60;12.45;;;6.40;99.90;;;;;;4989770;28;20050;-77
2020/12/16 07:44:50;;;;;;;32.65;12.50;;;6.40;99.90;;;;;;4998121;28;20046;-77
2020/12/16 07:47:19;;;;;;;21.33;10.95;;;6.40;99.90;;;;;;4992301;28;20129;-77
2020/12/16 07:49:48;;;;;;;26.73;13.63;;;6.50;99.90;;;;;;4988022;28;20027;-77
2020/12/16 07:52:14;;;;;;;28.85;12.70;;;6.40;99.90;;;;;;4988577;28;20094;-77
2020/12/16 07:54:40;;;;;;;38.45;13.68;;;6.40;99.90;;;;;;4991895;28;20062;-77
2020/12/16 07:57:06;;;;;;;28.73;12.20;;;6.40;99.90;;;;;;4989003;28;20046;-77
2020/12/16 07:59:34;;;;;;;24.17;12.98;;;6.50;99.90;;;;;;4995838;28;20372;-77
2020/12/16 08:02:10;;;;;;;;;;;6.50;99.90;;;;;;4994637;28;20062;-76
2020/12/16 08:04:37;;;;;;;27.17;12.70;;;6.50;99.90;;;;;;4998892;28;19944;-77
2020/12/16 08:07:20;;;;;;;29.20;12.43;;;6.50;99.90;;;;;;4988471;28;20069;-75
2020/12/16 08:10:06;;;;;;;20.65;11.30;;;6.50;99.90;;;;;;4996167;28;20026;-77
2020/12/16 08:12:34;;;;;;;23.83;13.80;;;6.50;99.90;;;;;;4998546;28;20518;-76
2020/12/16 08:15:08;;;;;;;28.98;12.45;;;6.50;99.90;;;;;;4994205;28;20494;-76
2020/12/16 08:17:42;;;;;;;26.02;11.98;;;6.40;99.90;;;;;;4991410;28;20030;-76
2020/12/16 08:20:22;;;;;;;25.35;14.07;;;6.40;99.90;;;;;;4994696;28;20498;-76
2020/12/16 08:22:50;;;;;;;25.27;12.77;;;6.50;99.90;;;;;;4986147;28;20029;-77
2020/12/16 08:25:17;;;;;;;24.38;12.85;;;6.50;99.90;;;;;;4993974;28;20030;-76
2020/12/16 08:27:48;;;;;;;23.08;13.20;;;6.50;99.90;;;;;;4994299;28;20042;-78
2020/12/16 08:30:17;;;;;;;29.88;14.02;;;6.60;99.90;;;;;;4995004;28;20018;-77
2020/12/16 08:32:51;;;;;;;;;;;6.50;99.90;;;;;;4990034;28;20030;-77
2020/12/16 08:35:22;;;;;;;20.42;11.40;;;6.50;99.90;;;;;;4994425;28;19910;-80
2020/12/16 08:37:55;;;;;;;21.23;11.77;;;6.50;99.90;;;;;;4986969;28;20018;-80
2020/12/16 08:40:21;;;;;;;26.85;13.68;;;6.60;99.90;;;;;;4993718;28;20033;-79
2020/12/16 08:42:47;;;;;;;27.88;13.45;;;6.60;99.90;;;;;;4996572;28;20038;-80
2020/12/16 08:45:13;;;;;;;24.50;12.55;;;6.50;99.90;;;;;;4996673;28;20030;-79
2020/12/16 08:47:39;;;;;;;23.90;12.88;;;6.60;99.90;;;;;;4990101;28;20102;-81
2020/12/16 08:50:15;;;;;;;23.58;12.25;;;6.60;99.90;;;;;;4996205;28;20034;-78
2020/12/16 08:52:48;;;;;;;21.75;12.48;;;6.50;99.90;;;;;;4977270;28;20082;-78
2020/12/16 08:55:23;;;;;;;24.15;13.02;;;6.50;99.90;;;;;;4991503;28;20090;-80
2020/12/16 08:57:50;;;;;;;20.27;11.70;;;6.50;99.90;;;;;;4992377;28;20047;-79
2020/12/16 09:00:15;;;;;;;29.70;13.50;;;6.60;99.90;;;;;;5006421;28;20022;-79
2020/12/16 09:02:41;;;;;;;22.30;13.68;;;6.60;99.90;;;;;;5016618;28;20090;-80
2020/12/16 09:05:07;;;;;;;24.42;13.13;;;6.70;99.90;;;;;;5004344;28;20027;-79
2020/12/16 09:07:35;;;;;;;23.45;11.57;;;6.80;99.90;;;;;;5006891;28;20046;-78
2020/12/16 09:10:02;;;;;;;19.23;10.88;;;6.80;99.90;;;;;;4997884;28;20067;-77
2020/12/16 09:12:27;;;;;;;20.80;12.65;;;6.80;99.90;;;;;;5007774;28;20039;-80
2020/12/16 09:15:06;;;;;;;21.38;12.07;;;6.80;99.90;;;;;;4996961;28;20096;-78
2020/12/16 09:17:34;;;;;;;19.42;11.60;;;6.90;99.90;;;;;;4998734;28;20100;-79
2020/12/16 09:19:59;;;;;;;19.95;11.32;;;6.90;99.90;;;;;;4997494;28;20022;-78
2020/12/16 09:22:28;;;;;;;17.98;11.25;;;7.00;99.90;;;;;;4982861;28;20035;-79
2020/12/16 09:24:53;;;;;;;;;;;7.10;99.90;;;;;;4989964;28;20027;-77
2020/12/16 09:27:19;;;;;;;16.48;10.00;;;7.10;99.90;;;;;;4996204;28;19983;-77
2020/12/16 09:29:48;;;;;;;16.33;9.85;;;7.20;99.90;;;;;;4996710;28;20030;-78
2020/12/16 09:32:17;;;;;;;13.93;9.52;;;7.30;99.90;;;;;;4990407;28;20057;-77
2020/12/16 09:34:45;;;;;;;;;;;7.40;99.90;;;;;;4990945;28;20015;-77
2020/12/16 09:37:17;;;;;;;17.10;9.25;;;7.50;99.90;;;;;;4982946;28;19906;-78
2020/12/16 09:39:44;;;;;;;20.05;9.70;;;7.50;99.90;;;;;;5000649;28;20368;-77
2020/12/16 09:42:15;;;;;;;16.60;10.52;;;7.50;99.90;;;;;;5005102;28;20034;-77
2020/12/16 09:44:42;;;;;;;15.50;9.80;;;7.50;99.90;;;;;;5004259;28;20467;-78
2020/12/16 09:47:12;;;;;;;20.02;8.95;;;7.60;99.90;;;;;;4989653;28;20086;-77
2020/12/16 09:49:38;;;;;;;14.48;8.77;;;7.60;99.90;;;;;;4990135;28;20018;-78
2020/12/16 09:52:04;;;;;;;12.88;9.18;;;7.70;99.90;;;;;;4991370;28;20047;-78
2020/12/16 09:54:31;;;;;;;19.38;8.93;;;7.70;99.90;;;;;;4994902;28;20041;-77
2020/12/16 09:57:09;;;;;;;15.25;9.25;;;7.80;99.90;;;;;;5002740;28;20070;-77
2020/12/16 09:59:35;;;;;;;14.05;9.18;;;7.90;99.90;;;;;;4999071;28;20529;-78
2020/12/16 10:02:03;;;;;;;15.70;8.70;;;8.00;99.90;;;;;;4998420;28;20526;-77
2020/12/16 10:04:28;;;;;;;15.87;8.40;;;8.10;99.90;;;;;;4985423;28;20019;-77
2020/12/16 10:06:54;;;;;;;18.15;8.18;;;8.10;99.90;;;;;;5000465;28;20038;-78
2020/12/16 10:09:20;;;;;;;12.95;8.77;;;8.10;99.90;;;;;;5001591;28;20018;-78
2020/12/16 10:11:48;;;;;;;12.13;8.20;;;8.10;99.90;;;;;;4994899;28;20034;-77
2020/12/16 10:14:17;;;;;;;12.38;7.78;;;8.10;99.90;;;;;;4991951;28;21560;-77
2020/12/16 10:16:47;;;;;;;12.88;8.10;;;8.20;99.90;;;;;;5008220;28;20454;-77
2020/12/16 10:19:14;;;;;;;9.70;7.10;;;8.20;99.90;;;;;;4999530;28;20064;-78
2020/12/16 10:21:40;;;;;;;10.02;7.38;;;8.30;99.90;;;;;;4994311;28;20030;-77
2020/12/16 10:24:07;;;;;;;10.85;7.57;;;8.40;99.90;;;;;;4996245;28;20054;-77
2020/12/16 10:26:33;;;;;;;17.05;8.38;;;8.50;99.90;;;;;;4997986;28;20092;-77
2020/12/16 10:28:59;;;;;;;16.23;8.02;;;8.60;99.90;;;;;;5000581;28;20066;-77
2020/12/16 10:31:24;;;;;;;11.40;7.03;;;8.70;99.90;;;;;;5000640;28;20046;-77
2020/12/16 10:33:50;;;;;;;21.20;8.43;;;8.80;99.90;;;;;;4997778;28;20018;-77
2020/12/16 10:36:15;;;;;;;14.85;8.02;;;8.80;99.90;;;;;;4999738;28;20534;-78
2020/12/16 10:38:41;;;;;;;14.18;8.25;;;8.90;99.90;;;;;;4996449;28;20057;-77
2020/12/16 10:41:07;;;;;;;14.10;8.45;;;8.90;99.90;;;;;;4992378;28;20030;-77
2020/12/16 10:43:33;;;;;;;15.52;9.15;;;9.00;99.90;;;;;;4989479;28;20038;-78
2020/12/16 10:45:58;;;;;;;17.13;8.07;;;9.00;99.90;;;;;;4990691;28;20038;-77
2020/12/16 10:48:24;;;;;;;12.80;7.28;;;9.10;99.90;;;;;;4992474;28;20074;-77
2020/12/16 10:50:50;;;;;;;11.73;7.68;;;9.10;99.90;;;;;;4992512;28;20037;-78
2020/12/16 10:53:16;;;;;;;12.10;7.22;;;9.10;99.90;;;;;;4997983;28;20031;-77
2020/12/16 10:55:42;;;;;;;12.82;6.60;;;9.20;99.90;;;;;;4992418;28;20030;-77
2020/12/16 10:58:07;;;;;;;8.02;6.57;;;9.20;99.90;;;;;;4986138;28;20430;-77
2020/12/16 11:00:33;;;;;;;10.73;7.45;;;9.20;99.90;;;;;;4990302;28;20034;-77
2020/12/16 11:02:58;;;;;;;12.85;6.93;;;9.30;99.90;;;;;;5005043;28;20049;-77
2020/12/16 11:05:24;;;;;;;10.98;6.93;;;9.30;99.90;;;;;;5004633;28;20030;-78
2020/12/16 11:07:50;;;;;;;10.07;6.65;;;9.40;99.90;;;;;;5007210;28;20053;-78
2020/12/16 11:10:15;;;;;;;13.88;7.18;;;9.40;99.90;;;;;;5007985;28;20019;-78
2020/12/16 11:12:41;;;;;;;10.40;6.38;;;9.50;99.90;;;;;;5011005;28;20038;-78
2020/12/16 11:15:08;;;;;;;13.02;7.13;;;9.50;99.90;;;;;;5011707;28;20046;-77
2020/12/16 11:17:33;;;;;;;12.82;6.93;;;9.50;99.90;;;;;;5016093;28;20026;-79
2020/12/16 11:19:59;;;;;;;11.38;6.70;;;9.60;99.90;;;;;;5007947;28;20018;-78
2020/12/16 11:22:25;;;;;;;22.23;7.70;;;9.60;99.90;;;;;;5006591;28;20549;-77
2020/12/16 11:24:50;;;;;;;16.63;7.00;;;9.60;99.90;;;;;;4996753;28;20062;-77
2020/12/16 11:27:16;;;;;;;7.65;6.28;;;9.60;99.90;;;;;;4998142;28;20046;-78
2020/12/16 11:29:48;;;;;;;12.55;7.32;;;9.70;99.90;;;;;;5000442;28;20410;-78
2020/12/16 11:32:14;;;;;;;10.18;7.32;;;9.70;99.90;;;;;;4991185;28;20070;-79
2020/12/16 11:34:40;;;;;;;8.93;6.65;;;9.70;99.90;;;;;;4994290;28;20038;-77
2020/12/16 11:37:06;;;;;;;9.63;7.22;;;9.80;99.90;;;;;;4992451;28;20039;-79
2020/12/16 11:39:31;;;;;;;11.73;6.40;;;9.90;99.90;;;;;;4987555;28;20030;-79
2020/12/16 11:41:57;;;;;;;14.55;6.68;;;9.90;99.90;;;;;;4982872;28;20066;-78
2020/12/16 11:44:25;;;;;;;10.10;6.38;;;10.00;99.90;;;;;;4983105;28;20046;-77
2020/12/16 11:46:52;;;;;;;8.70;5.97;;;10.10;99.90;;;;;;4982455;28;20031;-78
2020/12/16 11:49:18;;;;;;;10.98;6.20;;;10.20;99.90;;;;;;4983669;28;20030;-78
2020/12/16 11:51:43;;;;;;;10.00;6.45;;;10.20;99.90;;;;;;4981109;28;20045;-78
2020/12/16 11:54:09;;;;;;;16.40;6.68;;;10.20;99.90;;;;;;4991192;28;20030;-78
2020/12/16 11:56:36;;;;;;;10.05;6.40;;;10.20;99.90;;;;;;4994289;28;20128;-79
2020/12/16 11:59:03;;;;;;;9.23;6.30;;;10.20;99.90;;;;;;4995826;28;20026;-78
2020/12/16 12:01:29;;;;;;;10.52;6.95;;;10.30;99.90;;;;;;4991209;28;20039;-78
2020/12/16 12:03:54;;;;;;;7.78;6.05;;;10.30;99.90;;;;;;4984892;28;20355;-77
2020/12/16 12:06:20;;;;;;;9.32;6.63;;;10.40;99.90;;;;;;4987336;28;20136;-79
2020/12/16 12:08:45;;;;;;;11.70;7.10;;;10.40;99.90;;;;;;4991137;28;20453;-79
2020/12/16 12:11:14;;;;;;;10.05;6.28;;;10.50;99.90;;;;;;4996132;28;20050;-78
2020/12/16 12:13:41;;;;;;;10.50;6.18;;;10.50;99.90;;;;;;4992350;28;20117;-79
2020/12/16 12:16:11;;;;;;;10.10;6.53;;;10.50;99.90;;;;;;4990348;28;20030;-78
2020/12/16 12:18:40;;;;;;;10.90;6.40;;;10.50;99.90;;;;;;4982909;28;20044;-79
2020/12/16 12:21:06;;;;;;;8.05;6.13;;;10.50;99.90;;;;;;4985705;28;20475;-78
2020/12/16 12:23:32;;;;;;;9.15;6.80;;;10.50;99.90;;;;;;4993109;28;20049;-79
2020/12/16 12:25:58;;;;;;;7.95;6.53;;;10.50;99.90;;;;;;4985552;28;20059;-79
2020/12/16 12:28:23;;;;;;;12.02;6.95;;;10.50;99.90;;;;;;4992115;28;20023;-79
2020/12/16 12:30:49;;;;;;;9.45;7.07;;;10.50;99.90;;;;;;4989148;28;20030;-75
2020/12/16 12:33:15;;;;;;;8.82;6.22;;;10.50;99.90;;;;;;4985403;28;20030;-76
2020/12/16 12:35:41;;;;;;;10.73;7.65;;;10.50;99.90;;;;;;4981997;28;20022;-77
2020/12/16 12:38:07;;;;;;;12.20;7.80;;;10.50;99.90;;;;;;4979249;28;20369;-79
2020/12/16 12:40:32;;;;;;;14.93;7.97;;;10.50;99.90;;;;;;4981097;28;20042;-77
2020/12/16 12:42:58;;;;;;;10.20;6.50;;;10.50;99.90;;;;;;4985023;28;20034;-77
2020/12/16 12:45:23;;;;;;;17.00;6.97;;;10.60;99.90;;;;;;4989454;28;20046;-77